Time;durP1;ratioP1;P1;durP2;ratioP2;P2;SDS_P1;SDS_P2;PMS_P1;PMS_P2;Temp;Humidity;BMP_temperature;BMP_pressure;BME280_temperature;BME280_humidity;BME280_pressure;Samples;Min_cycle;Max_cycle;Signal;HPM_P1;HPM_P2
2023/01/06 00:01:07;;;;;;;9.93;2.88;;;9.70;91.20;;;;;;5066462;28;20041;-60
2023/01/06 00:03:40;;;;;;;11.18;3.20;;;9.70;91.30;;;;;;5062374;28;20055;-60
2023/01/06 00:06:10;;;;;;;10.52;3.40;;;9.70;91.10;;;;;;5067121;28;20044;-58
2023/01/06 00:08:37;;;;;;;10.98;3.53;;;9.70;91.20;;;;;;5066486;28;20079;-58
2023/01/06 00:11:05;;;;;;;11.95;3.22;;;9.80;91.10;;;;;;5067606;28;20053;-57
2023/01/06 00:13:33;;;;;;;9.82;3.10;;;9.80;91.20;;;;;;5062731;28;20052;-57
2023/01/06 00:16:05;;;;;;;8.50;2.88;;;9.70;90.70;;;;;;5068509;28;20094;-58
2023/01/06 00:18:37;;;;;;;11.18;3.50;;;9.70;90.40;;;;;;5066566;28;20056;-57
2023/01/06 00:21:04;;;;;;;7.85;2.80;;;9.80;91.00;;;;;;5067163;28;20048;-68
2023/01/06 00:23:37;;;;;;;8.05;2.65;;;9.80;91.20;;;;;;5066712;28;21226;-69
2023/01/06 00:26:06;;;;;;;8.00;2.72;;;9.70;91.00;;;;;;5067917;28;20045;-58
2023/01/06 00:28:33;;;;;;;9.07;2.63;;;9.80;91.20;;;;;;5068521;28;20655;-58
2023/01/06 00:31:07;;;;;;;8.20;2.75;;;9.80;91.30;;;;;;5071901;28;20041;-61
2023/01/06 00:33:34;;;;;;;7.32;2.55;;;9.70;91.30;;;;;;5071825;28;20098;-62
2023/01/06 00:36:02;;;;;;;8.88;3.35;;;9.80;91.30;;;;;;5069688;28;20135;-62
2023/01/06 00:38:35;;;;;;;7.95;2.83;;;9.80;91.10;;;;;;5068831;28;20071;-61
2023/01/06 00:42:02;;;;;;;9.00;2.85;;;9.80;91.20;;;;;;5069774;28;20455;-64
2023/01/06 00:43:52;;;;;;;;;;;9.80;91.20;;;;;;5063403;28;20072;-65
2023/01/06 00:46:21;;;;;;;12.40;3.60;;;9.80;91.10;;;;;;5056291;28;19936;-64
2023/01/06 00:48:48;;;;;;;9.52;3.70;;;9.80;91.10;;;;;;5036119;28;20098;-64
2023/01/06 00:51:15;;;;;;;11.02;3.80;;;9.90;91.20;;;;;;5051441;28;20041;-64
2023/01/06 00:53:43;;;;;;;11.93;4.57;;;9.90;91.40;;;;;;5054463;28;20132;-64
2023/01/06 00:56:10;;;;;;;11.27;5.28;;;9.90;91.30;;;;;;5058476;28;20503;-63
2023/01/06 00:58:37;;;;;;;11.55;5.90;;;9.90;91.10;;;;;;5038543;28;20056;-64
2023/01/06 01:01:05;;;;;;;10.85;4.80;;;9.90;91.20;;;;;;5052444;28;20059;-63
2023/01/06 01:03:35;;;;;;;12.07;4.63;;;9.90;91.00;;;;;;5041434;28;20062;-64
2023/01/06 01:06:04;;;;;;;10.70;4.17;;;9.90;91.00;;;;;;5037966;28;20063;-64
2023/01/06 01:08:31;;;;;;;10.68;4.20;;;9.90;91.20;;;;;;5039603;28;20431;-63
2023/01/06 01:11:03;;;;;;;11.68;3.60;;;9.90;91.30;;;;;;5039366;28;20053;-65
2023/01/06 01:13:33;;;;;;;10.20;3.72;;;9.90;91.40;;;;;;5058619;28;20052;-65
2023/01/06 01:16:04;;;;;;;7.60;3.47;;;9.90;91.30;;;;;;5055779;28;20044;-64
2023/01/06 01:18:31;;;;;;;6.75;3.30;;;9.90;91.30;;;;;;5059729;28;20123;-64
2023/01/06 01:21:00;;;;;;;10.50;2.90;;;9.90;91.30;;;;;;5058058;28;20044;-63
2023/01/06 01:23:29;;;;;;;7.63;2.80;;;9.90;91.30;;;;;;5060549;28;20953;-63
2023/01/06 01:25:56;;;;;;;7.28;3.00;;;9.90;91.20;;;;;;5058282;28;20045;-67
2023/01/06 01:28:23;;;;;;;7.55;2.63;;;9.90;91.30;;;;;;5060555;28;20055;-66
2023/01/06 01:30:58;;;;;;;7.32;2.60;;;10.00;91.30;;;;;;5054792;28;20053;-68
2023/01/06 01:33:24;;;;;;;5.45;2.30;;;9.90;91.30;;;;;;5059047;28;20048;-68
2023/01/06 01:35:52;;;;;;;5.80;2.70;;;9.90;91.30;;;;;;5041312;28;20053;-67
2023/01/06 01:38:20;;;;;;;5.78;2.13;;;10.00;91.30;;;;;;5058712;28;20078;-67
2023/01/06 01:40:48;;;;;;;5.18;1.83;;;9.90;91.10;;;;;;5058179;28;20504;-60
2023/01/06 01:43:15;;;;;;;4.30;1.98;;;9.90;91.30;;;;;;5058493;28;20517;-60
2023/01/06 01:45:44;;;;;;;7.28;2.60;;;9.90;91.40;;;;;;5039396;28;20412;-59
2023/01/06 01:48:17;;;;;;;4.05;1.85;;;10.00;91.50;;;;;;5055664;28;20086;-59
2023/01/06 01:50:48;;;;;;;4.70;2.00;;;10.00;91.50;;;;;;5056330;28;20057;-60
2023/01/06 01:53:18;;;;;;;5.82;1.92;;;10.00;91.50;;;;;;5058268;28;20095;-60
2023/01/06 01:55:50;;;;;;;5.60;1.77;;;10.00;91.50;;;;;;5021370;28;20045;-61
2023/01/06 01:58:21;;;;;;;5.68;1.85;;;10.00;91.60;;;;;;5052862;28;20044;-59
2023/01/06 02:00:52;;;;;;;6.00;1.80;;;10.00;91.50;;;;;;5050565;28;20068;-59
2023/01/06 02:03:20;;;;;;;5.32;1.80;;;10.00;91.60;;;;;;5058905;28;20048;-60
2023/01/06 02:05:51;;;;;;;7.65;2.30;;;10.00;91.70;;;;;;5038871;28;20048;-62
2023/01/06 02:08:26;;;;;;;6.32;2.20;;;10.10;91.70;;;;;;5037663;28;20123;-63
2023/01/06 02:10:54;;;;;;;5.25;2.25;;;10.10;91.60;;;;;;5039353;28;20106;-61
2023/01/06 02:13:22;;;;;;;5.68;2.30;;;10.10;91.70;;;;;;5058748;28;20059;-63
2023/01/06 02:15:52;;;;;;;4.70;2.10;;;10.10;91.60;;;;;;5037351;28;20166;-63
2023/01/06 02:18:37;;;;;;;6.35;2.15;;;10.10;91.80;;;;;;5058303;28;20565;-61
2023/01/06 02:21:27;;;;;;;6.72;2.38;;;10.10;91.80;;;;;;5057312;28;20048;-62
2023/01/06 02:24:26;;;;;;;7.95;3.63;;;10.10;92.00;;;;;;5039013;28;20053;-61
2023/01/06 02:27:17;;;;;;;9.43;3.83;;;10.10;92.10;;;;;;5024958;28;20053;-64
2023/01/06 02:30:07;;;;;;;7.82;3.80;;;10.10;92.20;;;;;;5037891;28;20036;-64
2023/01/06 02:33:09;;;;;;;9.48;3.92;;;10.10;92.20;;;;;;5041358;28;20052;-64
2023/01/06 02:35:54;;;;;;;11.52;4.85;;;10.10;92.10;;;;;;5040233;28;20063;-64
2023/01/06 02:38:38;;;;;;;10.98;4.65;;;10.20;92.00;;;;;;5048015;28;20137;-64
2023/01/06 02:41:27;;;;;;;10.45;4.80;;;10.20;92.10;;;;;;5049540;28;20045;-67
2023/01/06 02:44:01;;;;;;;9.50;4.35;;;10.20;92.20;;;;;;5050284;28;20132;-65
2023/01/06 02:46:47;;;;;;;9.43;4.43;;;10.20;92.20;;;;;;5057030;28;20052;-66
2023/01/06 02:49:24;;;;;;;7.65;4.18;;;10.20;92.20;;;;;;5040102;28;20098;-67
2023/01/06 02:51:56;;;;;;;9.13;3.65;;;10.20;92.10;;;;;;5042039;28;20487;-67
2023/01/06 02:54:30;;;;;;;8.25;3.80;;;10.20;92.10;;;;;;5039692;28;20051;-66
2023/01/06 02:57:07;;;;;;;7.50;3.40;;;10.20;92.10;;;;;;5056184;28;20052;-69
2023/01/06 02:59:38;;;;;;;10.43;3.63;;;10.20;92.20;;;;;;5037873;28;20049;-65
2023/01/06 03:02:09;;;;;;;7.57;3.38;;;10.20;92.30;;;;;;5056961;28;20080;-67
2023/01/06 03:04:41;;;;;;;7.10;3.65;;;10.20;92.40;;;;;;5054233;28;20045;-67
2023/01/06 03:07:10;;;;;;;8.68;3.53;;;10.20;92.30;;;;;;5037673;28;20402;-66
2023/01/06 03:09:39;;;;;;;8.88;3.60;;;10.30;92.50;;;;;;5036475;28;20052;-66
2023/01/06 03:12:12;;;;;;;9.82;3.97;;;10.30;92.40;;;;;;5052725;28;20045;-58
2023/01/06 03:14:44;;;;;;;7.78;3.35;;;10.30;92.40;;;;;;5050907;28;20048;-58
2023/01/06 03:17:12;;;;;;;6.63;3.58;;;10.30;92.50;;;;;;5033116;28;20049;-60
2023/01/06 03:19:42;;;;;;;6.82;3.08;;;10.30;92.30;;;;;;5036606;28;20053;-59
2023/01/06 03:22:14;;;;;;;5.55;2.67;;;10.30;92.50;;;;;;5023713;28;20048;-59
2023/01/06 03:24:43;;;;;;;7.45;3.28;;;10.30;92.60;;;;;;5029312;28;20064;-59
2023/01/06 03:27:10;;;;;;;4.78;2.40;;;10.30;92.60;;;;;;5022549;28;20060;-58
2023/01/06 03:29:38;;;;;;;6.05;2.80;;;10.30;92.70;;;;;;5054675;28;20068;-59
2023/01/06 03:32:15;;;;;;;6.57;2.78;;;10.30;92.80;;;;;;5038096;28;20876;-59
2023/01/06 03:34:58;;;;;;;4.72;1.88;;;10.30;92.70;;;;;;5048443;28;20479;-59
2023/01/06 03:37:31;;;;;;;4.28;1.85;;;10.30;92.80;;;;;;5035876;28;20056;-59
2023/01/06 03:40:09;;;;;;;4.45;1.77;;;10.40;92.90;;;;;;5036235;28;20063;-59
2023/01/06 03:45:50;;;;;;;4.95;1.80;;;10.40;92.90;;;;;;5052647;28;20041;-61
2023/01/06 03:48:28;;;;;;;3.67;1.70;;;10.40;92.90;;;;;;5038864;28;20102;-59
2023/01/06 03:51:03;;;;;;;4.70;2.00;;;10.40;93.00;;;;;;5052548;28;20071;-61
2023/01/06 03:53:37;;;;;;;6.35;1.83;;;10.40;93.00;;;;;;5038834;28;20037;-60
2023/01/06 03:56:15;;;;;;;4.07;1.30;;;10.40;93.10;;;;;;5036160;28;20202;-63
2023/01/06 03:58:46;;;;;;;3.35;1.10;;;10.50;93.00;;;;;;5033761;28;20160;-64
2023/01/06 04:01:15;;;;;;;2.38;0.95;;;10.40;92.70;;;;;;5035708;28;20060;-67
2023/01/06 04:03:45;;;;;;;1.85;0.95;;;10.50;92.80;;;;;;5036676;28;20059;-69
2023/01/06 04:06:14;;;;;;;2.83;0.80;;;10.50;92.60;;;;;;5033844;28;20064;-60
2023/01/06 04:08:43;;;;;;;2.92;0.88;;;10.50;92.50;;;;;;5034982;28;20052;-59
2023/01/06 04:12:37;;;;;;;2.65;0.80;;;10.50;92.50;;;;;;5024309;28;20857;-59
2023/01/06 04:13:56;;;;;;;1.88;0.90;;;10.50;92.50;;;;;;5054212;28;20131;-59
2023/01/06 04:16:23;;;;;;;2.70;0.90;;;10.60;92.60;;;;;;5033432;28;20078;-58
2023/01/06 04:18:50;;;;;;;2.50;0.90;;;10.60;92.60;;;;;;5021798;28;20103;-58
2023/01/06 04:21:18;;;;;;;2.00;0.88;;;10.60;92.50;;;;;;5036071;28;20044;-61
2023/01/06 04:23:45;;;;;;;1.88;0.90;;;10.60;92.50;;;;;;5037916;28;20560;-61
2023/01/06 04:26:12;;;;;;;1.83;0.82;;;10.60;92.50;;;;;;5031707;28;20155;-64
2023/01/06 04:28:47;;;;;;;2.47;0.90;;;10.60;92.80;;;;;;5037419;28;20053;-65
2023/01/06 04:31:14;;;;;;;2.15;0.80;;;10.60;92.70;;;;;;5052191;28;20060;-66
2023/01/06 04:33:41;;;;;;;1.30;0.70;;;10.60;92.90;;;;;;5056084;28;20048;-66
2023/01/06 04:36:11;;;;;;;1.50;0.80;;;10.60;92.90;;;;;;5032527;28;20052;-66
2023/01/06 04:38:42;;;;;;;1.88;1.00;;;10.60;92.90;;;;;;5036046;28;20530;-65
2023/01/06 04:41:09;;;;;;;2.63;0.85;;;10.60;92.90;;;;;;5052048;28;20748;-66
2023/01/06 04:43:36;;;;;;;2.88;0.98;;;10.50;92.80;;;;;;5062718;28;20076;-65
2023/01/06 04:46:02;;;;;;;2.58;1.20;;;10.60;92.80;;;;;;5063705;28;20060;-66
2023/01/06 04:48:34;;;;;;;3.38;1.17;;;10.60;92.80;;;;;;5066999;28;20040;-64
2023/01/06 04:51:01;;;;;;;3.70;1.55;;;10.60;92.80;;;;;;5066818;28;20045;-65
2023/01/06 04:53:28;;;;;;;3.88;1.42;;;10.50;92.90;;;;;;5062493;28;20044;-65
2023/01/06 04:56:01;;;;;;;2.13;1.10;;;10.50;92.80;;;;;;5064958;28;20040;-66
2023/01/06 04:58:31;;;;;;;3.30;1.42;;;10.50;92.90;;;;;;5067249;28;20076;-66
2023/01/06 05:01:02;;;;;;;3.00;1.45;;;10.60;92.80;;;;;;5063734;28;20053;-65
2023/01/06 05:03:29;;;;;;;2.70;1.17;;;10.60;92.80;;;;;;5066655;28;20047;-66
2023/01/06 05:05:56;;;;;;;3.20;1.40;;;10.50;92.70;;;;;;5065237;28;20048;-59
2023/01/06 05:08:23;;;;;;;2.83;1.33;;;10.50;92.60;;;;;;5061604;28;20052;-59
2023/01/06 05:10:50;;;;;;;4.95;1.45;;;10.50;92.50;;;;;;5058885;28;20045;-58
2023/01/06 05:13:18;;;;;;;4.35;1.75;;;10.50;92.60;;;;;;5066004;28;20159;-58
2023/01/06 05:15:45;;;;;;;4.10;1.45;;;10.50;92.50;;;;;;5065690;28;20057;-58
2023/01/06 05:18:12;;;;;;;3.25;1.60;;;10.50;92.60;;;;;;5070004;28;20663;-60
2023/01/06 05:20:39;;;;;;;3.05;1.30;;;10.50;92.50;;;;;;5068276;28;20079;-60
2023/01/06 05:23:06;;;;;;;2.78;1.50;;;10.50;92.50;;;;;;5066196;28;20067;-60
2023/01/06 05:25:33;;;;;;;3.55;1.60;;;10.50;92.50;;;;;;5070839;28;20059;-59
2023/01/06 05:28:00;;;;;;;2.85;1.55;;;10.50;92.50;;;;;;5065994;28;20137;-59
2023/01/06 05:30:31;;;;;;;;;;;10.50;92.50;;;;;;5069919;28;20056;-58
2023/01/06 05:32:58;;;;;;;2.30;1.27;;;10.50;92.40;;;;;;5068715;28;20015;-60
2023/01/06 05:35:25;;;;;;;2.25;1.23;;;10.50;92.50;;;;;;5069157;28;20131;-58
2023/01/06 05:37:54;;;;;;;3.25;1.50;;;10.50;92.50;;;;;;5064619;28;20502;-60
2023/01/06 05:40:21;;;;;;;2.97;1.52;;;10.40;92.40;;;;;;5068184;28;20044;-59
2023/01/06 05:42:48;;;;;;;3.55;1.63;;;10.50;92.20;;;;;;5067383;28;20049;-59
2023/01/06 05:45:14;;;;;;;1.38;0.90;;;10.40;92.30;;;;;;5062834;28;20045;-59
2023/01/06 05:47:43;;;;;;;2.03;0.98;;;10.40;92.10;;;;;;5067287;28;20052;-59
2023/01/06 05:50:10;;;;;;;1.45;0.90;;;10.50;92.10;;;;;;5067211;28;20105;-59
2023/01/06 05:52:37;;;;;;;1.63;0.70;;;10.40;92.00;;;;;;5064164;28;20056;-61
2023/01/06 05:55:04;;;;;;;1.63;0.52;;;10.40;91.90;;;;;;5066269;28;20377;-61
2023/01/06 05:57:32;;;;;;;1.52;0.70;;;10.40;91.80;;;;;;5069006;28;20049;-59
2023/01/06 05:59:59;;;;;;;1.25;0.60;;;10.40;91.60;;;;;;5070090;28;20036;-60
2023/01/06 06:02:26;;;;;;;1.45;0.50;;;10.40;91.50;;;;;;5062547;28;20087;-61
2023/01/06 06:04:54;;;;;;;1.30;0.50;;;10.40;91.50;;;;;;5065352;28;20053;-60
2023/01/06 06:07:21;;;;;;;1.75;0.52;;;10.40;91.50;;;;;;5066434;28;20502;-58
2023/01/06 06:09:48;;;;;;;0.80;0.38;;;10.40;91.30;;;;;;5067414;28;20056;-60
2023/01/06 06:12:15;;;;;;;1.45;0.55;;;10.40;91.30;;;;;;5068786;28;20040;-57
2023/01/06 06:14:43;;;;;;;0.85;0.52;;;10.40;91.20;;;;;;5063919;28;20058;-65
2023/01/06 06:17:13;;;;;;;2.17;0.50;;;10.40;91.20;;;;;;5061403;28;20048;-63
2023/01/06 06:19:40;;;;;;;1.10;0.43;;;10.40;91.10;;;;;;5066158;28;20508;-64
2023/01/06 06:22:08;;;;;;;0.88;0.40;;;10.40;91.10;;;;;;5065055;28;20055;-65
2023/01/06 06:24:35;;;;;;;1.30;0.50;;;10.40;91.10;;;;;;5062708;28;20048;-67
2023/01/06 06:27:02;;;;;;;1.67;0.55;;;10.40;91.10;;;;;;5064925;28;20060;-66
2023/01/06 06:29:32;;;;;;;0.93;0.57;;;10.40;91.20;;;;;;5067870;28;20051;-64
2023/01/06 06:31:59;;;;;;;1.33;0.80;;;10.40;91.20;;;;;;5066788;28;20053;-65
2023/01/06 06:34:26;;;;;;;2.85;0.60;;;10.40;91.10;;;;;;5063345;28;20055;-65
2023/01/06 06:36:53;;;;;;;1.58;0.70;;;10.40;91.20;;;;;;5065711;28;20418;-64
2023/01/06 06:39:21;;;;;;;1.77;0.55;;;10.30;91.30;;;;;;5066157;28;20055;-65
2023/01/06 06:41:48;;;;;;;1.00;0.50;;;10.40;91.20;;;;;;5063349;28;20106;-63
2023/01/06 06:44:15;;;;;;;1.98;0.60;;;10.30;91.10;;;;;;5063825;28;20045;-63
2023/01/06 06:46:42;;;;;;;1.50;0.60;;;10.30;91.20;;;;;;5066541;28;20057;-65
2023/01/06 06:49:09;;;;;;;0.95;0.40;;;10.40;91.30;;;;;;5068101;28;20048;-66
2023/01/06 06:51:37;;;;;;;0.60;0.30;;;10.30;91.20;;;;;;5066947;28;20052;-63
2023/01/06 06:54:04;;;;;;;1.55;0.70;;;10.30;91.30;;;;;;5066852;28;20077;-63
2023/01/06 06:56:33;;;;;;;2.08;0.68;;;10.30;91.40;;;;;;5068184;28;20097;-66
2023/01/06 06:59:00;;;;;;;2.00;0.80;;;10.30;91.30;;;;;;5067197;28;20049;-64
2023/01/06 07:01:30;;;;;;;0.73;0.40;;;10.30;91.50;;;;;;5062824;28;20056;-65
2023/01/06 07:03:57;;;;;;;1.45;0.52;;;10.30;91.40;;;;;;5061999;28;20051;-65
2023/01/06 07:06:26;;;;;;;1.20;0.50;;;10.30;91.30;;;;;;5067291;28;20049;-65
2023/01/06 07:08:53;;;;;;;1.75;0.45;;;10.30;91.30;;;;;;5066872;28;20068;-65
2023/01/06 07:11:21;;;;;;;1.17;0.43;;;10.20;91.00;;;;;;5065542;28;20044;-66
2023/01/06 07:13:49;;;;;;;1.80;0.40;;;10.20;91.00;;;;;;5066138;28;20445;-65
2023/01/06 07:16:16;;;;;;;3.25;0.47;;;10.20;90.90;;;;;;5062726;28;20106;-65
2023/01/06 07:18:43;;;;;;;1.20;0.55;;;10.20;90.90;;;;;;5064159;28;20048;-67
2023/01/06 07:21:10;;;;;;;0.60;0.32;;;10.20;90.90;;;;;;5068993;28;20403;-64
2023/01/06 07:23:37;;;;;;;1.02;0.52;;;10.20;91.00;;;;;;5062943;28;20049;-67
2023/01/06 07:26:04;;;;;;;3.83;0.60;;;10.20;90.90;;;;;;5062865;28;20053;-67
2023/01/06 07:28:32;;;;;;;2.15;0.63;;;10.20;90.90;;;;;;5063978;28;20070;-65
2023/01/06 07:31:01;;;;;;;0.98;0.50;;;10.20;90.90;;;;;;5063042;28;20044;-67
2023/01/06 07:33:29;;;;;;;1.83;0.50;;;10.20;90.90;;;;;;5067070;28;20098;-65
2023/01/06 07:35:57;;;;;;;0.98;0.50;;;10.20;90.80;;;;;;5061694;28;20550;-63
2023/01/06 07:38:25;;;;;;;1.20;0.65;;;10.20;90.70;;;;;;5064247;28;20842;-66
2023/01/06 07:40:52;;;;;;;2.70;0.70;;;10.20;90.70;;;;;;5068107;28;20048;-66
2023/01/06 07:43:19;;;;;;;1.35;0.47;;;10.20;90.70;;;;;;5056466;28;20061;-66
2023/01/06 07:45:47;;;;;;;1.88;0.80;;;10.20;90.70;;;;;;5053553;28;20565;-66
2023/01/06 07:48:16;;;;;;;1.35;0.70;;;10.20;90.70;;;;;;5053365;28;20071;-66
2023/01/06 07:50:43;;;;;;;3.10;0.90;;;10.20;90.70;;;;;;5053532;28;20052;-64
2023/01/06 07:53:10;;;;;;;2.95;0.73;;;10.20;90.80;;;;;;5051352;28;20044;-66
2023/01/06 07:55:37;;;;;;;1.88;0.80;;;10.20;90.60;;;;;;5055481;28;20049;-67
2023/01/06 07:58:05;;;;;;;1.58;0.65;;;10.20;90.50;;;;;;5057358;28;20044;-66
2023/01/06 08:00:33;;;;;;;1.05;0.50;;;10.20;90.50;;;;;;5051291;28;20049;-66
2023/01/06 08:03:03;;;;;;;1.67;0.70;;;10.20;90.50;;;;;;5050527;28;20052;-68
2023/01/06 08:05:32;;;;;;;2.13;0.60;;;10.20;90.50;;;;;;5050132;28;21006;-65
2023/01/06 08:07:59;;;;;;;1.67;0.77;;;10.20;90.50;;;;;;5053288;28;20052;-66
2023/01/06 08:10:26;;;;;;;2.30;0.85;;;10.20;90.50;;;;;;5053992;28;20059;-65
2023/01/06 08:12:53;;;;;;;3.25;0.88;;;10.20;90.60;;;;;;5052510;28;20067;-66
2023/01/06 08:15:20;;;;;;;3.35;0.90;;;10.20;90.50;;;;;;5053128;28;20052;-67
2023/01/06 08:17:47;;;;;;;2.83;0.70;;;10.20;90.60;;;;;;5055266;28;20064;-67
2023/01/06 08:20:14;;;;;;;2.17;0.82;;;10.20;90.50;;;;;;5052789;28;20037;-65
2023/01/06 08:22:42;;;;;;;1.02;0.60;;;10.20;90.40;;;;;;5046641;28;20049;-66
2023/01/06 08:25:10;;;;;;;3.35;0.98;;;10.20;90.40;;;;;;5049058;28;20047;-67
2023/01/06 08:27:37;;;;;;;2.75;0.95;;;10.30;90.40;;;;;;5052666;28;20049;-66
2023/01/06 08:30:04;;;;;;;2.60;0.90;;;10.30;90.40;;;;;;5055065;28;20148;-66
2023/01/06 08:32:31;;;;;;;3.33;1.08;;;10.30;90.20;;;;;;5054829;28;20065;-66
2023/01/06 08:34:58;;;;;;;1.20;0.60;;;10.30;90.30;;;;;;5053785;28;20053;-65
2023/01/06 08:37:25;;;;;;;2.15;0.70;;;10.30;90.30;;;;;;5051268;28;20045;-65
2023/01/06 08:39:53;;;;;;;1.85;0.85;;;10.30;90.40;;;;;;5052527;28;20041;-66
2023/01/06 08:42:20;;;;;;;2.03;0.80;;;10.30;90.30;;;;;;5054328;28;20056;-65
2023/01/06 08:44:47;;;;;;;2.40;0.88;;;10.30;90.30;;;;;;5054720;28;20036;-68
2023/01/06 08:47:14;;;;;;;2.05;0.80;;;10.30;90.30;;;;;;5055202;28;20045;-66
2023/01/06 08:49:41;;;;;;;3.03;1.13;;;10.30;90.10;;;;;;5056459;28;20041;-65
2023/01/06 08:52:08;;;;;;;2.72;0.88;;;10.30;90.10;;;;;;5059590;28;20048;-65
2023/01/06 08:54:34;;;;;;;3.63;0.88;;;10.30;90.10;;;;;;5060507;28;20052;-64
2023/01/06 08:57:03;;;;;;;2.33;0.85;;;10.30;90.10;;;;;;5050893;28;20063;-67
2023/01/06 08:59:30;;;;;;;1.38;0.80;;;10.30;90.20;;;;;;5059114;28;20479;-65
2023/01/06 09:01:57;;;;;;;2.42;0.70;;;10.30;90.10;;;;;;5056009;28;20901;-63
2023/01/06 09:04:24;;;;;;;1.98;0.68;;;10.30;90.00;;;;;;5056818;28;20045;-63
2023/01/06 09:06:51;;;;;;;1.83;0.70;;;10.30;90.00;;;;;;5055909;28;20496;-63
2023/01/06 09:09:18;;;;;;;1.88;0.50;;;10.30;89.90;;;;;;5058419;28;20052;-63
2023/01/06 09:11:46;;;;;;;1.17;0.60;;;10.30;89.80;;;;;;5055096;28;20064;-67
2023/01/06 09:14:14;;;;;;;2.25;0.77;;;10.30;89.70;;;;;;5056226;28;20052;-66
2023/01/06 09:16:41;;;;;;;3.90;0.70;;;10.30;89.60;;;;;;5048675;28;20056;-66
2023/01/06 09:19:09;;;;;;;1.73;0.70;;;10.30;89.50;;;;;;5050614;28;20071;-66
2023/01/06 09:21:36;;;;;;;3.13;0.77;;;10.30;89.40;;;;;;5057216;28;20056;-65
2023/01/06 09:24:04;;;;;;;1.90;0.65;;;10.30;89.50;;;;;;5058776;28;20049;-66
2023/01/06 09:26:31;;;;;;;1.10;0.50;;;10.30;89.40;;;;;;5058317;28;20056;-65
2023/01/06 09:28:57;;;;;;;2.92;0.70;;;10.30;89.30;;;;;;5057706;28;20075;-66
2023/01/06 09:31:26;;;;;;;2.22;0.77;;;10.40;89.30;;;;;;5049461;28;20048;-60
2023/01/06 09:33:53;;;;;;;0.95;0.50;;;10.30;89.30;;;;;;5059698;28;20068;-58
2023/01/06 09:36:20;;;;;;;0.85;0.30;;;10.30;89.30;;;;;;5060985;28;20047;-59
2023/01/06 09:38:47;;;;;;;1.50;0.63;;;10.30;89.20;;;;;;5058711;28;20063;-59
2023/01/06 09:41:33;;;;;;;0.98;0.47;;;10.30;89.10;;;;;;5059963;28;20383;-62
2023/01/06 09:44:06;;;;;;;2.58;0.50;;;10.30;88.90;;;;;;5057982;28;20068;-61
2023/01/06 09:46:40;;;;;;;2.47;0.43;;;10.30;88.80;;;;;;5043498;28;20044;-61
2023/01/06 09:49:15;;;;;;;1.13;0.40;;;10.30;88.70;;;;;;5056984;28;20044;-63
2023/01/06 09:51:43;;;;;;;0.50;0.40;;;10.30;88.70;;;;;;5058887;28;20123;-62
2023/01/06 09:54:16;;;;;;;2.67;0.60;;;10.40;88.60;;;;;;5059253;28;20546;-61
2023/01/06 09:56:46;;;;;;;2.42;0.50;;;10.40;88.50;;;;;;5057550;28;20408;-67
2023/01/06 09:59:19;;;;;;;2.05;0.50;;;10.30;88.50;;;;;;5060349;28;20918;-68
2023/01/06 10:01:50;;;;;;;4.18;0.82;;;10.30;88.40;;;;;;5058501;28;20048;-59
2023/01/06 10:04:26;;;;;;;1.65;0.80;;;10.30;88.30;;;;;;5057961;28;20476;-59
2023/01/06 10:07:04;;;;;;;3.00;1.00;;;10.30;88.40;;;;;;5052551;28;20128;-60
2023/01/06 10:09:40;;;;;;;2.85;1.33;;;10.30;88.20;;;;;;5052806;28;20052;-59
2023/01/06 10:12:21;;;;;;;2.22;1.05;;;10.30;88.30;;;;;;5057041;28;20052;-59
2023/01/06 10:14:57;;;;;;;2.28;0.80;;;10.30;88.30;;;;;;5054380;28;20503;-60
2023/01/06 10:17:37;;;;;;;2.40;0.80;;;10.30;88.30;;;;;;5060042;28;20044;-59
2023/01/06 10:20:16;;;;;;;3.72;0.93;;;10.30;88.40;;;;;;5055816;28;20045;-59
2023/01/06 10:22:54;;;;;;;2.60;1.10;;;10.30;88.30;;;;;;5059364;28;20114;-60
2023/01/06 10:25:22;;;;;;;3.20;1.17;;;10.30;88.20;;;;;;5057398;28;20049;-59
2023/01/06 10:27:53;;;;;;;3.47;1.30;;;10.30;88.00;;;;;;5057696;28;20053;-59
2023/01/06 10:30:24;;;;;;;3.90;1.38;;;10.30;88.10;;;;;;5057637;28;20045;-66
2023/01/06 10:32:53;;;;;;;2.90;1.30;;;10.30;87.70;;;;;;5054058;28;20061;-67
2023/01/06 10:35:24;;;;;;;3.00;1.00;;;10.30;87.80;;;;;;5055583;28;20040;-68
2023/01/06 10:37:52;;;;;;;2.03;0.90;;;10.30;87.50;;;;;;5053093;28;20044;-67
2023/01/06 10:40:22;;;;;;;2.25;0.80;;;10.30;87.50;;;;;;5055322;28;21693;-67
2023/01/06 10:42:58;;;;;;;1.80;0.90;;;10.30;87.40;;;;;;5050044;28;20072;-67
2023/01/06 10:45:30;;;;;;;2.38;0.80;;;10.30;87.30;;;;;;5053932;28;20487;-67
2023/01/06 10:47:59;;;;;;;3.28;1.10;;;10.30;87.60;;;;;;5048004;28;20052;-66
2023/01/06 10:50:26;;;;;;;3.30;1.10;;;10.30;87.60;;;;;;5054237;28;20412;-58
2023/01/06 10:52:53;;;;;;;2.53;1.00;;;10.30;87.10;;;;;;5047562;28;20049;-58
2023/01/06 10:55:36;;;;;;;1.73;0.70;;;10.30;87.30;;;;;;5054986;28;20550;-58
2023/01/06 10:58:13;;;;;;;2.67;0.98;;;10.30;87.30;;;;;;5038897;28;20044;-58
2023/01/06 11:00:56;;;;;;;3.22;1.20;;;10.30;87.30;;;;;;5056500;28;20055;-56
2023/01/06 11:03:24;;;;;;;3.25;1.30;;;10.30;87.20;;;;;;5057098;28;20048;-58
2023/01/06 11:06:01;;;;;;;3.80;1.30;;;10.30;87.30;;;;;;5049963;28;20048;-59
2023/01/06 11:08:31;;;;;;;2.92;1.38;;;10.30;87.00;;;;;;5057152;28;20048;-58
2023/01/06 11:10:58;;;;;;;4.07;1.52;;;10.30;87.10;;;;;;5054245;28;20041;-59
2023/01/06 11:13:29;;;;;;;3.25;1.20;;;10.30;87.00;;;;;;5058253;28;20048;-58
2023/01/06 11:16:01;;;;;;;3.53;1.40;;;10.30;86.80;;;;;;5056197;28;20091;-58
2023/01/06 11:18:31;;;;;;;4.43;1.17;;;10.30;86.90;;;;;;5057400;28;20043;-59
2023/01/06 11:21:06;;;;;;;4.32;1.10;;;10.40;86.80;;;;;;5057634;28;20049;-66
2023/01/06 11:23:34;;;;;;;3.42;0.90;;;10.30;86.80;;;;;;5055479;28;20060;-69
2023/01/06 11:26:05;;;;;;;3.28;0.88;;;10.30;86.60;;;;;;5056919;28;20048;-68
2023/01/06 11:28:34;;;;;;;1.52;0.80;;;10.30;86.70;;;;;;5055476;28;20396;-67
2023/01/06 11:31:05;;;;;;;1.90;0.82;;;10.30;86.90;;;;;;5050346;28;20059;-68
2023/01/06 11:33:36;;;;;;;2.88;1.00;;;10.30;86.60;;;;;;5056235;28;20055;-68
2023/01/06 11:36:09;;;;;;;2.00;0.88;;;10.30;86.50;;;;;;5048992;28;20047;-67
2023/01/06 11:38:43;;;;;;;3.47;1.80;;;10.40;86.30;;;;;;5052071;28;20462;-67
2023/01/06 11:41:11;;;;;;;3.35;1.20;;;10.30;86.40;;;;;;5055794;28;20049;-67
2023/01/06 11:43:44;;;;;;;3.70;1.50;;;10.40;86.10;;;;;;5051783;28;20131;-67
2023/01/06 11:46:14;;;;;;;3.25;1.33;;;10.40;86.20;;;;;;5055440;28;20147;-67
2023/01/06 11:48:48;;;;;;;4.93;1.42;;;10.40;86.20;;;;;;5054061;28;20060;-66
2023/01/06 11:51:30;;;;;;;4.22;1.30;;;10.40;86.30;;;;;;5050490;28;20048;-66
2023/01/06 11:53:57;;;;;;;3.70;1.10;;;10.40;86.40;;;;;;5051289;28;20052;-68
2023/01/06 11:56:24;;;;;;;2.75;0.80;;;10.40;86.20;;;;;;5054017;28;20044;-60
2023/01/06 11:59:03;;;;;;;2.10;0.70;;;10.30;85.90;;;;;;5057912;28;20059;-60
2023/01/06 12:01:37;;;;;;;2.83;0.80;;;10.40;85.90;;;;;;5052823;28;20047;-57
2023/01/06 12:04:14;;;;;;;2.88;1.08;;;10.40;85.90;;;;;;5055718;28;20048;-58
2023/01/06 12:06:42;;;;;;;3.13;0.70;;;10.40;85.80;;;;;;5056291;28;20053;-58
2023/01/06 12:09:17;;;;;;;2.38;0.77;;;10.40;85.70;;;;;;5057566;28;20052;-57
2023/01/06 12:11:47;;;;;;;2.13;0.50;;;10.40;85.70;;;;;;5042478;28;20053;-58
2023/01/06 12:14:16;;;;;;;1.20;0.55;;;10.40;85.80;;;;;;5050538;28;20415;-58
2023/01/06 12:16:54;;;;;;;1.60;0.57;;;10.40;85.40;;;;;;5042300;28;20059;-57
2023/01/06 12:19:30;;;;;;;3.72;1.23;;;10.40;85.60;;;;;;5051290;28;20166;-58
2023/01/06 12:21:59;;;;;;;2.20;0.77;;;10.50;85.50;;;;;;5055611;28;20515;-58
2023/01/06 12:24:27;;;;;;;4.03;0.90;;;10.50;85.50;;;;;;5058531;28;20074;-59
2023/01/06 12:26:54;;;;;;;1.33;0.60;;;10.50;85.40;;;;;;5058973;28;20150;-58
2023/01/06 12:29:22;;;;;;;1.65;0.52;;;10.50;85.50;;;;;;5056759;28;20072;-58
2023/01/06 12:32:00;;;;;;;2.85;0.57;;;10.50;85.40;;;;;;5055440;28;20049;-60
2023/01/06 12:34:35;;;;;;;2.33;0.60;;;10.50;85.30;;;;;;5061284;28;20068;-60
2023/01/06 12:37:15;;;;;;;2.45;0.73;;;10.50;85.30;;;;;;5057868;28;20048;-67
2023/01/06 12:39:55;;;;;;;2.65;0.57;;;10.50;85.20;;;;;;5056238;28;20414;-67
2023/01/06 12:42:28;;;;;;;1.83;0.70;;;10.50;85.30;;;;;;5052071;28;20041;-60
2023/01/06 12:45:01;;;;;;;1.88;0.65;;;10.50;85.20;;;;;;5059694;28;20118;-60
2023/01/06 12:47:36;;;;;;;1.50;0.60;;;10.50;85.20;;;;;;5060848;28;20116;-60
2023/01/06 12:50:15;;;;;;;2.30;0.80;;;10.50;85.40;;;;;;5054694;28;20040;-60
2023/01/06 12:52:47;;;;;;;1.60;0.50;;;10.50;85.20;;;;;;5059773;28;20049;-61
2023/01/06 12:55:18;;;;;;;1.40;0.60;;;10.50;85.30;;;;;;5057170;28;20044;-63
2023/01/06 12:57:51;;;;;;;1.58;0.40;;;10.50;85.30;;;;;;5058701;28;20048;-62
2023/01/06 13:00:32;;;;;;;5.50;0.98;;;10.50;85.40;;;;;;5059731;28;20053;-61
2023/01/06 13:03:23;;;;;;;1.30;0.52;;;10.60;85.30;;;;;;5056602;28;20049;-62
2023/01/06 13:06:00;;;;;;;2.33;0.75;;;10.50;85.40;;;;;;5059129;28;20071;-62
2023/01/06 13:09:01;;;;;;;1.98;0.70;;;10.60;85.40;;;;;;5059271;28;20076;-62